sensor_id;sensor_type;location;lat;lon;timestamp;P1;durP1;ratioP1;P2;durP2;ratioP2
4422;SDS011;2224;49.814;8.650;2022-07-10T00:01:19;6.20;;;5.60;;
4422;SDS011;2224;49.814;8.650;2022-07-10T00:03:45;6.87;;;6.27;;
4422;SDS011;2224;49.814;8.650;2022-07-10T00:06:10;8.47;;;6.30;;
4422;SDS011;2224;49.814;8.650;2022-07-10T00:08:36;6.23;;;5.73;;
4422;SDS011;2224;49.814;8.650;2022-07-10T00:11:01;6.97;;;6.27;;
4422;SDS011;2224;49.814;8.650;2022-07-10T00:13:26;7.00;;;4.67;;
4422;SDS011;2224;49.814;8.650;2022-07-10T00:15:52;6.30;;;5.70;;
4422;SDS011;2224;49.814;8.650;2022-07-10T00:18:17;8.67;;;5.93;;
4422;SDS011;2224;49.814;8.650;2022-07-10T00:20:42;6.00;;;4.47;;
4422;SDS011;2224;49.814;8.650;2022-07-10T00:23:08;5.70;;;4.90;;
4422;SDS011;2224;49.814;8.650;2022-07-10T00:25:33;5.10;;;4.60;;
4422;SDS011;2224;49.814;8.650;2022-07-10T00:27:58;6.20;;;4.00;;
4422;SDS011;2224;49.814;8.650;2022-07-10T00:30:24;6.13;;;4.13;;
4422;SDS011;2224;49.814;8.650;2022-07-10T00:32:50;4.80;;;4.40;;
4422;SDS011;2224;49.814;8.650;2022-07-10T00:35:15;6.07;;;4.30;;
4422;SDS011;2224;49.814;8.650;2022-07-10T00:37:40;7.77;;;3.80;;
4422;SDS011;2224;49.814;8.650;2022-07-10T00:40:06;4.03;;;3.60;;
4422;SDS011;2224;49.814;8.650;2022-07-10T00:42:32;4.60;;;3.83;;
4422;SDS011;2224;49.814;8.650;2022-07-10T00:44:58;7.00;;;3.90;;
4422;SDS011;2224;49.814;8.650;2022-07-10T00:47:23;5.40;;;3.83;;
4422;SDS011;2224;49.814;8.650;2022-07-10T00:49:49;3.73;;;3.27;;
4422;SDS011;2224;49.814;8.650;2022-07-10T00:52:15;4.10;;;3.80;;
4422;SDS011;2224;49.814;8.650;2022-07-10T00:54:42;7.17;;;3.60;;
4422;SDS011;2224;49.814;8.650;2022-07-10T00:57:09;4.40;;;3.87;;
4422;SDS011;2224;49.814;8.650;2022-07-10T00:59:35;3.70;;;3.30;;
4422;SDS011;2224;49.814;8.650;2022-07-10T01:02:01;3.73;;;3.43;;
4422;SDS011;2224;49.814;8.650;2022-07-10T01:04:28;3.60;;;3.30;;
4422;SDS011;2224;49.814;8.650;2022-07-10T01:06:54;3.37;;;3.07;;
4422;SDS011;2224;49.814;8.650;2022-07-10T01:09:19;3.90;;;3.43;;
4422;SDS011;2224;49.814;8.650;2022-07-10T01:11:45;5.60;;;3.30;;
4422;SDS011;2224;49.814;8.650;2022-07-10T01:14:10;4.47;;;3.57;;
4422;SDS011;2224;49.814;8.650;2022-07-10T01:16:36;4.30;;;3.63;;
4422;SDS011;2224;49.814;8.650;2022-07-10T01:19:02;4.87;;;3.40;;
4422;SDS011;2224;49.814;8.650;2022-07-10T01:21:31;4.37;;;3.97;;
4422;SDS011;2224;49.814;8.650;2022-07-10T01:24:03;8.63;;;3.90;;
4422;SDS011;2224;49.814;8.650;2022-07-10T01:26:31;6.00;;;3.53;;
4422;SDS011;2224;49.814;8.650;2022-07-10T01:28:57;4.40;;;3.60;;
4422;SDS011;2224;49.814;8.650;2022-07-10T01:31:26;5.23;;;3.63;;
4422;SDS011;2224;49.814;8.650;2022-07-10T01:33:52;4.50;;;3.60;;
4422;SDS011;2224;49.814;8.650;2022-07-10T01:36:19;6.00;;;5.40;;
4422;SDS011;2224;49.814;8.650;2022-07-10T01:38:45;7.13;;;6.50;;
4422;SDS011;2224;49.814;8.650;2022-07-10T01:41:11;7.20;;;5.57;;
4422;SDS011;2224;49.814;8.650;2022-07-10T01:43:37;7.00;;;6.30;;
4422;SDS011;2224;49.814;8.650;2022-07-10T01:46:03;6.50;;;5.90;;
4422;SDS011;2224;49.814;8.650;2022-07-10T01:48:29;7.03;;;6.30;;
4422;SDS011;2224;49.814;8.650;2022-07-10T01:50:55;6.90;;;5.70;;
4422;SDS011;2224;49.814;8.650;2022-07-10T01:53:21;6.17;;;5.57;;
4422;SDS011;2224;49.814;8.650;2022-07-10T01:55:46;7.57;;;6.87;;
4422;SDS011;2224;49.814;8.650;2022-07-10T01:58:11;7.77;;;6.97;;
4422;SDS011;2224;49.814;8.650;2022-07-10T02:00:37;7.37;;;6.60;;
4422;SDS011;2224;49.814;8.650;2022-07-10T02:03:02;6.53;;;5.90;;
4422;SDS011;2224;49.814;8.650;2022-07-10T02:05:46;5.40;;;4.97;;
4422;SDS011;2224;49.814;8.650;2022-07-10T02:08:11;5.43;;;4.80;;
4422;SDS011;2224;49.814;8.650;2022-07-10T02:10:38;6.13;;;4.93;;
4422;SDS011;2224;49.814;8.650;2022-07-10T02:13:03;5.70;;;4.23;;
4422;SDS011;2224;49.814;8.650;2022-07-10T02:15:28;5.17;;;4.43;;
4422;SDS011;2224;49.814;8.650;2022-07-10T02:17:54;4.03;;;3.63;;
4422;SDS011;2224;49.814;8.650;2022-07-10T02:20:19;4.63;;;4.03;;
4422;SDS011;2224;49.814;8.650;2022-07-10T02:22:44;4.20;;;3.80;;
4422;SDS011;2224;49.814;8.650;2022-07-10T02:25:10;4.20;;;3.70;;
4422;SDS011;2224;49.814;8.650;2022-07-10T02:27:35;8.90;;;4.63;;
4422;SDS011;2224;49.814;8.650;2022-07-10T02:30:00;5.80;;;3.70;;
4422;SDS011;2224;49.814;8.650;2022-07-10T02:32:26;4.83;;;4.07;;
4422;SDS011;2224;49.814;8.650;2022-07-10T02:34:51;4.50;;;4.00;;
4422;SDS011;2224;49.814;8.650;2022-07-10T02:37:17;4.77;;;3.70;;
4422;SDS011;2224;49.814;8.650;2022-07-10T02:39:42;5.03;;;3.93;;
4422;SDS011;2224;49.814;8.650;2022-07-10T02:42:07;5.00;;;4.50;;
4422;SDS011;2224;49.814;8.650;2022-07-10T02:44:33;5.00;;;4.07;;
4422;SDS011;2224;49.814;8.650;2022-07-10T02:46:58;5.90;;;4.33;;
4422;SDS011;2224;49.814;8.650;2022-07-10T02:49:23;4.20;;;3.80;;
4422;SDS011;2224;49.814;8.650;2022-07-10T02:51:49;6.60;;;3.90;;
4422;SDS011;2224;49.814;8.650;2022-07-10T02:54:15;8.33;;;4.50;;
4422;SDS011;2224;49.814;8.650;2022-07-10T02:56:41;4.43;;;3.67;;
4422;SDS011;2224;49.814;8.650;2022-07-10T02:59:06;4.60;;;3.60;;
4422;SDS011;2224;49.814;8.650;2022-07-10T03:01:32;3.30;;;3.00;;
4422;SDS011;2224;49.814;8.650;2022-07-10T03:03:57;6.73;;;4.07;;
4422;SDS011;2224;49.814;8.650;2022-07-10T03:06:22;3.60;;;3.20;;
4422;SDS011;2224;49.814;8.650;2022-07-10T03:08:48;5.53;;;3.77;;
4422;SDS011;2224;49.814;8.650;2022-07-10T03:11:14;3.23;;;2.93;;
4422;SDS011;2224;49.814;8.650;2022-07-10T03:13:39;3.23;;;2.90;;
4422;SDS011;2224;49.814;8.650;2022-07-10T03:16:05;4.00;;;2.60;;
4422;SDS011;2224;49.814;8.650;2022-07-10T03:18:30;3.40;;;3.03;;
4422;SDS011;2224;49.814;8.650;2022-07-10T03:20:55;5.20;;;3.20;;
4422;SDS011;2224;49.814;8.650;2022-07-10T03:23:21;4.10;;;3.43;;
4422;SDS011;2224;49.814;8.650;2022-07-10T03:25:46;11.57;;;4.17;;
4422;SDS011;2224;49.814;8.650;2022-07-10T03:28:11;6.30;;;3.70;;
4422;SDS011;2224;49.814;8.650;2022-07-10T03:30:37;4.87;;;3.40;;
4422;SDS011;2224;49.814;8.650;2022-07-10T03:33:02;5.67;;;3.90;;
4422;SDS011;2224;49.814;8.650;2022-07-10T03:35:28;4.00;;;3.60;;
4422;SDS011;2224;49.814;8.650;2022-07-10T03:37:56;4.87;;;3.70;;
4422;SDS011;2224;49.814;8.650;2022-07-10T03:40:21;7.43;;;3.50;;
4422;SDS011;2224;49.814;8.650;2022-07-10T03:42:47;6.90;;;4.00;;
4422;SDS011;2224;49.814;8.650;2022-07-10T03:45:12;5.67;;;2.97;;
4422;SDS011;2224;49.814;8.650;2022-07-10T03:47:37;3.50;;;3.20;;
4422;SDS011;2224;49.814;8.650;2022-07-10T03:50:03;3.77;;;3.47;;
4422;SDS011;2224;49.814;8.650;2022-07-10T03:52:29;5.50;;;3.23;;
4422;SDS011;2224;49.814;8.650;2022-07-10T03:54:55;4.70;;;3.37;;
4422;SDS011;2224;49.814;8.650;2022-07-10T03:57:20;6.73;;;3.40;;
4422;SDS011;2224;49.814;8.650;2022-07-10T04:00:04;4.83;;;3.00;;
4422;SDS011;2224;49.814;8.650;2022-07-10T04:02:30;4.03;;;3.30;;
4422;SDS011;2224;49.814;8.650;2022-07-10T04:04:55;3.20;;;2.70;;
4422;SDS011;2224;49.814;8.650;2022-07-10T04:07:20;3.93;;;3.03;;
4422;SDS011;2224;49.814;8.650;2022-07-10T04:09:46;3.37;;;2.87;;
4422;SDS011;2224;49.814;8.650;2022-07-10T04:12:11;4.57;;;4.00;;
4422;SDS011;2224;49.814;8.650;2022-07-10T04:14:36;4.33;;;2.70;;
4422;SDS011;2224;49.814;8.650;2022-07-10T04:17:02;5.80;;;3.30;;
4422;SDS011;2224;49.814;8.650;2022-07-10T04:19:27;6.03;;;3.33;;
4422;SDS011;2224;49.814;8.650;2022-07-10T04:21:53;14.73;;;3.57;;
4422;SDS011;2224;49.814;8.650;2022-07-10T04:24:18;3.83;;;2.90;;
4422;SDS011;2224;49.814;8.650;2022-07-10T04:26:44;3.87;;;3.10;;
4422;SDS011;2224;49.814;8.650;2022-07-10T04:29:09;4.90;;;3.73;;
4422;SDS011;2224;49.814;8.650;2022-07-10T04:31:34;4.60;;;2.97;;
4422;SDS011;2224;49.814;8.650;2022-07-10T04:34:00;3.60;;;3.03;;
4422;SDS011;2224;49.814;8.650;2022-07-10T04:36:25;5.40;;;3.40;;
4422;SDS011;2224;49.814;8.650;2022-07-10T04:38:50;4.50;;;3.03;;
4422;SDS011;2224;49.814;8.650;2022-07-10T04:41:16;5.13;;;3.17;;
4422;SDS011;2224;49.814;8.650;2022-07-10T04:43:41;6.90;;;2.97;;
4422;SDS011;2224;49.814;8.650;2022-07-10T04:46:06;9.23;;;3.00;;
4422;SDS011;2224;49.814;8.650;2022-07-10T04:48:32;5.53;;;2.70;;
4422;SDS011;2224;49.814;8.650;2022-07-10T04:50:57;3.50;;;3.07;;
4422;SDS011;2224;49.814;8.650;2022-07-10T04:53:23;4.03;;;2.80;;
4422;SDS011;2224;49.814;8.650;2022-07-10T04:55:48;3.37;;;2.90;;
4422;SDS011;2224;49.814;8.650;2022-07-10T04:58:14;3.60;;;2.73;;
4422;SDS011;2224;49.814;8.650;2022-07-10T05:00:39;3.40;;;2.90;;
4422;SDS011;2224;49.814;8.650;2022-07-10T05:03:04;3.27;;;2.53;;
4422;SDS011;2224;49.814;8.650;2022-07-10T05:05:30;6.23;;;2.40;;
4422;SDS011;2224;49.814;8.650;2022-07-10T05:07:55;4.60;;;2.27;;
4422;SDS011;2224;49.814;8.650;2022-07-10T05:10:21;3.77;;;2.40;;
4422;SDS011;2224;49.814;8.650;2022-07-10T05:12:46;2.80;;;2.30;;
4422;SDS011;2224;49.814;8.650;2022-07-10T05:15:11;3.30;;;2.63;;
4422;SDS011;2224;49.814;8.650;2022-07-10T05:17:37;4.03;;;2.40;;
4422;SDS011;2224;49.814;8.650;2022-07-10T05:20:02;3.90;;;2.00;;
4422;SDS011;2224;49.814;8.650;2022-07-10T05:22:28;6.00;;;2.30;;
4422;SDS011;2224;49.814;8.650;2022-07-10T05:24:55;5.77;;;2.40;;
4422;SDS011;2224;49.814;8.650;2022-07-10T05:27:21;3.30;;;2.20;;
4422;SDS011;2224;49.814;8.650;2022-07-10T05:29:46;7.97;;;2.87;;
4422;SDS011;2224;49.814;8.650;2022-07-10T05:32:13;5.63;;;2.30;;
4422;SDS011;2224;49.814;8.650;2022-07-10T05:34:38;3.30;;;2.17;;
4422;SDS011;2224;49.814;8.650;2022-07-10T05:37:04;2.23;;;2.03;;
4422;SDS011;2224;49.814;8.650;2022-07-10T05:39:29;5.00;;;2.30;;
4422;SDS011;2224;49.814;8.650;2022-07-10T05:41:55;4.27;;;2.40;;
4422;SDS011;2224;49.814;8.650;2022-07-10T05:44:22;3.90;;;2.23;;
4422;SDS011;2224;49.814;8.650;2022-07-10T05:46:48;4.20;;;2.80;;
4422;SDS011;2224;49.814;8.650;2022-07-10T05:49:13;3.20;;;1.80;;
4422;SDS011;2224;49.814;8.650;2022-07-10T05:51:38;2.10;;;1.90;;
4422;SDS011;2224;49.814;8.650;2022-07-10T05:54:04;2.83;;;1.87;;
4422;SDS011;2224;49.814;8.650;2022-07-10T05:56:29;2.80;;;2.00;;
4422;SDS011;2224;49.814;8.650;2022-07-10T05:58:54;4.03;;;1.80;;
4422;SDS011;2224;49.814;8.650;2022-07-10T06:01:20;2.47;;;2.03;;
4422;SDS011;2224;49.814;8.650;2022-07-10T06:03:46;2.30;;;2.10;;
4422;SDS011;2224;49.814;8.650;2022-07-10T06:06:12;5.17;;;2.10;;
4422;SDS011;2224;49.814;8.650;2022-07-10T06:08:40;2.40;;;1.97;;
4422;SDS011;2224;49.814;8.650;2022-07-10T06:11:09;4.07;;;2.17;;
4422;SDS011;2224;49.814;8.650;2022-07-10T06:13:34;3.13;;;1.70;;
4422;SDS011;2224;49.814;8.650;2022-07-10T06:15:59;4.90;;;1.80;;
4422;SDS011;2224;49.814;8.650;2022-07-10T06:18:25;2.40;;;1.63;;
4422;SDS011;2224;49.814;8.650;2022-07-10T06:20:51;3.00;;;1.67;;
4422;SDS011;2224;49.814;8.650;2022-07-10T06:23:16;4.60;;;2.40;;
4422;SDS011;2224;49.814;8.650;2022-07-10T06:25:41;4.83;;;2.03;;
4422;SDS011;2224;49.814;8.650;2022-07-10T06:28:07;3.30;;;1.40;;
4422;SDS011;2224;49.814;8.650;2022-07-10T06:30:32;2.80;;;1.77;;
4422;SDS011;2224;49.814;8.650;2022-07-10T06:32:57;2.97;;;1.80;;
4422;SDS011;2224;49.814;8.650;2022-07-10T06:35:23;4.33;;;1.70;;
4422;SDS011;2224;49.814;8.650;2022-07-10T06:37:48;2.50;;;1.30;;
4422;SDS011;2224;49.814;8.650;2022-07-10T06:40:13;3.00;;;1.60;;
4422;SDS011;2224;49.814;8.650;2022-07-10T06:42:39;5.07;;;1.50;;
4422;SDS011;2224;49.814;8.650;2022-07-10T06:45:05;1.93;;;1.40;;
4422;SDS011;2224;49.814;8.650;2022-07-10T06:47:31;3.57;;;1.40;;
4422;SDS011;2224;49.814;8.650;2022-07-10T06:50:14;2.50;;;1.63;;
4422;SDS011;2224;49.814;8.650;2022-07-10T06:52:40;2.20;;;1.63;;
4422;SDS011;2224;49.814;8.650;2022-07-10T06:55:05;2.60;;;1.40;;
4422;SDS011;2224;49.814;8.650;2022-07-10T06:57:31;2.00;;;1.10;;
4422;SDS011;2224;49.814;8.650;2022-07-10T06:59:57;1.97;;;1.77;;
4422;SDS011;2224;49.814;8.650;2022-07-10T07:02:22;1.93;;;1.10;;
4422;SDS011;2224;49.814;8.650;2022-07-10T07:04:47;3.30;;;1.90;;
4422;SDS011;2224;49.814;8.650;2022-07-10T07:07:13;3.63;;;1.47;;
4422;SDS011;2224;49.814;8.650;2022-07-10T07:09:39;5.73;;;1.30;;
4422;SDS011;2224;49.814;8.650;2022-07-10T07:12:05;3.00;;;1.10;;
4422;SDS011;2224;49.814;8.650;2022-07-10T07:14:31;1.57;;;1.17;;
4422;SDS011;2224;49.814;8.650;2022-07-10T07:16:56;3.07;;;1.33;;
4422;SDS011;2224;49.814;8.650;2022-07-10T07:19:39;3.27;;;1.00;;
4422;SDS011;2224;49.814;8.650;2022-07-10T07:22:23;2.50;;;1.00;;
4422;SDS011;2224;49.814;8.650;2022-07-10T07:25:08;4.33;;;1.30;;
4422;SDS011;2224;49.814;8.650;2022-07-10T07:27:34;1.60;;;1.20;;
4422;SDS011;2224;49.814;8.650;2022-07-10T07:30:04;2.00;;;1.10;;
4422;SDS011;2224;49.814;8.650;2022-07-10T07:32:31;5.00;;;1.20;;
4422;SDS011;2224;49.814;8.650;2022-07-10T07:34:57;1.90;;;0.80;;
4422;SDS011;2224;49.814;8.650;2022-07-10T07:37:23;3.80;;;1.20;;
4422;SDS011;2224;49.814;8.650;2022-07-10T07:39:49;1.57;;;1.03;;
4422;SDS011;2224;49.814;8.650;2022-07-10T07:42:14;2.30;;;1.00;;
4422;SDS011;2224;49.814;8.650;2022-07-10T07:44:39;2.53;;;1.30;;
4422;SDS011;2224;49.814;8.650;2022-07-10T07:47:04;3.63;;;1.10;;
4422;SDS011;2224;49.814;8.650;2022-07-10T07:49:30;3.37;;;1.20;;
4422;SDS011;2224;49.814;8.650;2022-07-10T07:51:55;2.90;;;1.17;;
4422;SDS011;2224;49.814;8.650;2022-07-10T07:54:21;2.03;;;1.00;;
4422;SDS011;2224;49.814;8.650;2022-07-10T07:56:46;5.90;;;1.10;;
4422;SDS011;2224;49.814;8.650;2022-07-10T07:59:11;1.83;;;0.90;;
4422;SDS011;2224;49.814;8.650;2022-07-10T08:01:37;1.60;;;1.10;;
4422;SDS011;2224;49.814;8.650;2022-07-10T08:04:03;3.03;;;0.93;;
4422;SDS011;2224;49.814;8.650;2022-07-10T08:06:28;1.73;;;1.07;;
4422;SDS011;2224;49.814;8.650;2022-07-10T08:08:53;2.70;;;1.10;;
4422;SDS011;2224;49.814;8.650;2022-07-10T08:11:19;1.97;;;1.10;;
4422;SDS011;2224;49.814;8.650;2022-07-10T08:13:44;4.20;;;1.20;;
4422;SDS011;2224;49.814;8.650;2022-07-10T08:16:09;2.73;;;1.00;;
4422;SDS011;2224;49.814;8.650;2022-07-10T08:18:35;3.30;;;1.00;;
4422;SDS011;2224;49.814;8.650;2022-07-10T08:21:00;0.97;;;0.80;;
4422;SDS011;2224;49.814;8.650;2022-07-10T08:23:26;1.80;;;1.07;;
4422;SDS011;2224;49.814;8.650;2022-07-10T08:25:51;1.53;;;0.93;;
4422;SDS011;2224;49.814;8.650;2022-07-10T08:28:16;2.30;;;1.00;;
4422;SDS011;2224;49.814;8.650;2022-07-10T08:30:42;1.63;;;1.00;;
4422;SDS011;2224;49.814;8.650;2022-07-10T08:33:08;2.10;;;0.83;;
4422;SDS011;2224;49.814;8.650;2022-07-10T08:35:33;1.50;;;0.90;;
4422;SDS011;2224;49.814;8.650;2022-07-10T08:37:58;1.93;;;0.80;;
4422;SDS011;2224;49.814;8.650;2022-07-10T08:40:25;1.50;;;0.87;;
4422;SDS011;2224;49.814;8.650;2022-07-10T08:42:50;2.03;;;1.00;;
4422;SDS011;2224;49.814;8.650;2022-07-10T08:45:16;2.40;;;1.00;;
4422;SDS011;2224;49.814;8.650;2022-07-10T08:47:41;6.83;;;1.13;;
4422;SDS011;2224;49.814;8.650;2022-07-10T08:50:18;2.00;;;0.93;;
4422;SDS011;2224;49.814;8.650;2022-07-10T08:52:52;2.20;;;0.93;;
4422;SDS011;2224;49.814;8.650;2022-07-10T08:55:24;3.20;;;0.80;;
4422;SDS011;2224;49.814;8.650;2022-07-10T08:57:51;1.20;;;0.83;;
4422;SDS011;2224;49.814;8.650;2022-07-10T09:00:17;2.90;;;1.20;;
4422;SDS011;2224;49.814;8.650;2022-07-10T09:02:42;1.90;;;1.00;;
4422;SDS011;2224;49.814;8.650;2022-07-10T09:05:07;2.50;;;1.23;;
4422;SDS011;2224;49.814;8.650;2022-07-10T09:07:36;2.37;;;1.00;;
4422;SDS011;2224;49.814;8.650;2022-07-10T09:10:05;3.17;;;1.10;;
4422;SDS011;2224;49.814;8.650;2022-07-10T09:12:48;2.23;;;1.30;;
4422;SDS011;2224;49.814;8.650;2022-07-10T09:15:16;2.13;;;1.00;;
4422;SDS011;2224;49.814;8.650;2022-07-10T09:20:29;2.10;;;1.00;;
4422;SDS011;2224;49.814;8.650;2022-07-10T09:22:57;2.20;;;1.00;;
4422;SDS011;2224;49.814;8.650;2022-07-10T09:25:29;1.60;;;1.20;;
4422;SDS011;2224;49.814;8.650;2022-07-10T09:27:55;2.17;;;0.80;;
4422;SDS011;2224;49.814;8.650;2022-07-10T09:30:40;2.70;;;1.27;;
4422;SDS011;2224;49.814;8.650;2022-07-10T09:36:06;1.80;;;1.10;;
4422;SDS011;2224;49.814;8.650;2022-07-10T09:38:56;1.87;;;1.07;;
4422;SDS011;2224;49.814;8.650;2022-07-10T09:44:04;3.00;;;0.87;;
4422;SDS011;2224;49.814;8.650;2022-07-10T09:46:35;3.10;;;1.20;;
4422;SDS011;2224;49.814;8.650;2022-07-10T09:51:34;1.63;;;1.03;;
4422;SDS011;2224;49.814;8.650;2022-07-10T09:54:04;1.70;;;1.00;;
4422;SDS011;2224;49.814;8.650;2022-07-10T09:56:33;1.80;;;1.07;;
4422;SDS011;2224;49.814;8.650;2022-07-10T09:59:07;3.73;;;1.20;;
4422;SDS011;2224;49.814;8.650;2022-07-10T10:01:35;1.40;;;0.80;;
4422;SDS011;2224;49.814;8.650;2022-07-10T10:04:01;2.13;;;1.10;;
4422;SDS011;2224;49.814;8.650;2022-07-10T10:06:29;3.67;;;1.23;;
4422;SDS011;2224;49.814;8.650;2022-07-10T10:08:59;3.03;;;1.17;;
4422;SDS011;2224;49.814;8.650;2022-07-10T10:11:30;2.80;;;1.20;;
4422;SDS011;2224;49.814;8.650;2022-07-10T10:13:57;5.33;;;1.37;;
4422;SDS011;2224;49.814;8.650;2022-07-10T10:16:22;2.90;;;1.23;;
4422;SDS011;2224;49.814;8.650;2022-07-10T10:18:50;1.83;;;1.00;;
4422;SDS011;2224;49.814;8.650;2022-07-10T10:21:34;1.73;;;1.20;;
4422;SDS011;2224;49.814;8.650;2022-07-10T10:24:00;4.90;;;1.30;;
4422;SDS011;2224;49.814;8.650;2022-07-10T10:26:26;4.40;;;1.33;;
4422;SDS011;2224;49.814;8.650;2022-07-10T10:28:52;1.97;;;1.43;;
4422;SDS011;2224;49.814;8.650;2022-07-10T10:31:17;2.10;;;1.23;;
4422;SDS011;2224;49.814;8.650;2022-07-10T10:33:43;2.80;;;1.40;;
4422;SDS011;2224;49.814;8.650;2022-07-10T10:36:11;1.97;;;1.20;;
4422;SDS011;2224;49.814;8.650;2022-07-10T10:41:28;3.43;;;2.50;;
4422;SDS011;2224;49.814;8.650;2022-07-10T10:46:32;3.30;;;1.63;;
4422;SDS011;2224;49.814;8.650;2022-07-10T10:49:04;2.03;;;1.23;;
4422;SDS011;2224;49.814;8.650;2022-07-10T10:54:25;2.07;;;1.53;;
4422;SDS011;2224;49.814;8.650;2022-07-10T10:59:48;2.70;;;1.67;;
4422;SDS011;2224;49.814;8.650;2022-07-10T11:02:21;2.10;;;1.37;;
4422;SDS011;2224;49.814;8.650;2022-07-10T11:04:48;3.90;;;1.57;;
4422;SDS011;2224;49.814;8.650;2022-07-10T11:07:50;2.80;;;1.40;;
4422;SDS011;2224;49.814;8.650;2022-07-10T11:10:34;3.80;;;2.37;;
4422;SDS011;2224;49.814;8.650;2022-07-10T11:13:11;2.83;;;1.90;;
4422;SDS011;2224;49.814;8.650;2022-07-10T11:15:55;2.97;;;1.70;;
4422;SDS011;2224;49.814;8.650;2022-07-10T11:18:23;5.07;;;2.17;;
4422;SDS011;2224;49.814;8.650;2022-07-10T11:20:50;3.30;;;1.67;;
4422;SDS011;2224;49.814;8.650;2022-07-10T11:26:03;2.93;;;1.70;;
4422;SDS011;2224;49.814;8.650;2022-07-10T11:28:53;2.40;;;1.57;;
4422;SDS011;2224;49.814;8.650;2022-07-10T11:31:22;4.00;;;1.87;;
4422;SDS011;2224;49.814;8.650;2022-07-10T11:33:49;2.90;;;1.90;;
4422;SDS011;2224;49.814;8.650;2022-07-10T11:36:26;4.20;;;1.80;;
4422;SDS011;2224;49.814;8.650;2022-07-10T11:39:00;5.50;;;1.80;;
4422;SDS011;2224;49.814;8.650;2022-07-10T11:41:27;3.63;;;1.87;;
4422;SDS011;2224;49.814;8.650;2022-07-10T11:43:53;4.57;;;1.77;;
4422;SDS011;2224;49.814;8.650;2022-07-10T11:46:26;5.93;;;2.03;;
4422;SDS011;2224;49.814;8.650;2022-07-10T11:48:52;2.00;;;1.73;;
4422;SDS011;2224;49.814;8.650;2022-07-10T11:51:24;2.80;;;1.90;;
4422;SDS011;2224;49.814;8.650;2022-07-10T11:53:53;2.20;;;1.60;;
4422;SDS011;2224;49.814;8.650;2022-07-10T11:56:22;2.07;;;1.53;;
4422;SDS011;2224;49.814;8.650;2022-07-10T11:59:06;4.80;;;2.00;;
4422;SDS011;2224;49.814;8.650;2022-07-10T12:01:42;6.33;;;2.00;;
4422;SDS011;2224;49.814;8.650;2022-07-10T12:04:11;3.40;;;2.00;;
4422;SDS011;2224;49.814;8.650;2022-07-10T12:06:39;5.50;;;2.20;;
4422;SDS011;2224;49.814;8.650;2022-07-10T12:09:06;2.30;;;1.50;;
4422;SDS011;2224;49.814;8.650;2022-07-10T12:11:33;1.67;;;1.43;;
4422;SDS011;2224;49.814;8.650;2022-07-10T12:14:18;2.70;;;1.40;;
4422;SDS011;2224;49.814;8.650;2022-07-10T12:16:44;1.97;;;1.60;;
4422;SDS011;2224;49.814;8.650;2022-07-10T12:19:14;2.83;;;2.07;;
4422;SDS011;2224;49.814;8.650;2022-07-10T12:21:41;3.33;;;1.70;;
4422;SDS011;2224;49.814;8.650;2022-07-10T12:24:07;4.60;;;1.73;;
4422;SDS011;2224;49.814;8.650;2022-07-10T12:26:33;3.00;;;1.90;;
4422;SDS011;2224;49.814;8.650;2022-07-10T12:29:00;4.00;;;1.60;;
4422;SDS011;2224;49.814;8.650;2022-07-10T12:31:27;5.53;;;1.90;;
4422;SDS011;2224;49.814;8.650;2022-07-10T12:33:54;5.27;;;1.80;;
4422;SDS011;2224;49.814;8.650;2022-07-10T12:36:22;4.60;;;2.07;;
4422;SDS011;2224;49.814;8.650;2022-07-10T12:38:55;2.23;;;2.03;;
4422;SDS011;2224;49.814;8.650;2022-07-10T12:41:22;3.30;;;1.90;;
4422;SDS011;2224;49.814;8.650;2022-07-10T12:43:49;2.80;;;1.80;;
4422;SDS011;2224;49.814;8.650;2022-07-10T12:46:22;5.60;;;2.20;;
4422;SDS011;2224;49.814;8.650;2022-07-10T12:49:07;3.40;;;2.20;;
4422;SDS011;2224;49.814;8.650;2022-07-10T12:51:34;3.33;;;1.80;;
4422;SDS011;2224;49.814;8.650;2022-07-10T12:54:07;2.70;;;1.30;;
4422;SDS011;2224;49.814;8.650;2022-07-10T12:56:35;2.70;;;1.73;;
4422;SDS011;2224;49.814;8.650;2022-07-10T12:59:11;2.83;;;1.40;;
4422;SDS011;2224;49.814;8.650;2022-07-10T13:01:41;3.90;;;1.60;;
4422;SDS011;2224;49.814;8.650;2022-07-10T13:04:07;2.30;;;1.80;;
4422;SDS011;2224;49.814;8.650;2022-07-10T13:06:34;2.93;;;1.80;;
4422;SDS011;2224;49.814;8.650;2022-07-10T13:09:01;3.23;;;2.03;;
4422;SDS011;2224;49.814;8.650;2022-07-10T13:11:27;3.53;;;1.40;;
4422;SDS011;2224;49.814;8.650;2022-07-10T13:13:53;3.73;;;2.03;;
4422;SDS011;2224;49.814;8.650;2022-07-10T13:16:19;2.63;;;1.70;;
4422;SDS011;2224;49.814;8.650;2022-07-10T13:18:44;4.03;;;1.50;;
4422;SDS011;2224;49.814;8.650;2022-07-10T13:21:10;4.33;;;1.90;;
4422;SDS011;2224;49.814;8.650;2022-07-10T13:23:38;1.93;;;1.60;;
4422;SDS011;2224;49.814;8.650;2022-07-10T13:26:05;4.90;;;1.97;;
4422;SDS011;2224;49.814;8.650;2022-07-10T13:28:31;3.60;;;1.60;;
4422;SDS011;2224;49.814;8.650;2022-07-10T13:30:57;5.67;;;2.17;;
4422;SDS011;2224;49.814;8.650;2022-07-10T13:33:22;2.90;;;1.77;;
4422;SDS011;2224;49.814;8.650;2022-07-10T13:35:49;4.23;;;1.20;;
4422;SDS011;2224;49.814;8.650;2022-07-10T13:38:14;2.93;;;1.20;;
4422;SDS011;2224;49.814;8.650;2022-07-10T13:40:42;1.83;;;1.30;;
4422;SDS011;2224;49.814;8.650;2022-07-10T13:43:09;1.80;;;1.50;;
4422;SDS011;2224;49.814;8.650;2022-07-10T13:45:34;1.50;;;1.10;;
4422;SDS011;2224;49.814;8.650;2022-07-10T13:48:08;4.43;;;1.90;;
4422;SDS011;2224;49.814;8.650;2022-07-10T13:50:34;4.60;;;1.60;;
4422;SDS011;2224;49.814;8.650;2022-07-10T13:53:00;4.50;;;1.40;;
4422;SDS011;2224;49.814;8.650;2022-07-10T13:55:25;1.50;;;1.20;;
4422;SDS011;2224;49.814;8.650;2022-07-10T13:57:50;3.27;;;1.50;;
4422;SDS011;2224;49.814;8.650;2022-07-10T14:00:16;2.87;;;1.50;;
4422;SDS011;2224;49.814;8.650;2022-07-10T14:02:41;2.03;;;1.17;;
4422;SDS011;2224;49.814;8.650;2022-07-10T14:05:07;4.73;;;2.40;;
4422;SDS011;2224;49.814;8.650;2022-07-10T14:07:35;3.70;;;1.07;;
4422;SDS011;2224;49.814;8.650;2022-07-10T14:10:00;2.33;;;1.27;;
4422;SDS011;2224;49.814;8.650;2022-07-10T14:12:26;1.37;;;1.13;;
4422;SDS011;2224;49.814;8.650;2022-07-10T14:14:51;2.80;;;1.40;;
4422;SDS011;2224;49.814;8.650;2022-07-10T14:17:17;3.20;;;1.27;;
4422;SDS011;2224;49.814;8.650;2022-07-10T14:19:42;1.43;;;0.97;;
4422;SDS011;2224;49.814;8.650;2022-07-10T14:22:07;2.23;;;1.30;;
4422;SDS011;2224;49.814;8.650;2022-07-10T14:24:33;3.23;;;1.50;;
4422;SDS011;2224;49.814;8.650;2022-07-10T14:26:59;3.27;;;1.47;;
4422;SDS011;2224;49.814;8.650;2022-07-10T14:29:24;2.73;;;1.33;;
4422;SDS011;2224;49.814;8.650;2022-07-10T14:31:49;1.90;;;1.40;;
4422;SDS011;2224;49.814;8.650;2022-07-10T14:34:16;1.77;;;1.30;;
4422;SDS011;2224;49.814;8.650;2022-07-10T14:36:42;2.37;;;1.17;;
4422;SDS011;2224;49.814;8.650;2022-07-10T14:39:07;2.87;;;1.40;;
4422;SDS011;2224;49.814;8.650;2022-07-10T14:41:32;3.00;;;1.70;;
4422;SDS011;2224;49.814;8.650;2022-07-10T14:43:58;1.97;;;1.27;;
4422;SDS011;2224;49.814;8.650;2022-07-10T14:46:23;2.33;;;1.30;;
4422;SDS011;2224;49.814;8.650;2022-07-10T14:48:49;1.33;;;0.90;;
4422;SDS011;2224;49.814;8.650;2022-07-10T14:51:15;2.10;;;1.10;;
4422;SDS011;2224;49.814;8.650;2022-07-10T14:53:40;1.37;;;1.00;;
4422;SDS011;2224;49.814;8.650;2022-07-10T14:56:06;1.20;;;0.83;;
4422;SDS011;2224;49.814;8.650;2022-07-10T14:58:32;1.40;;;0.90;;
4422;SDS011;2224;49.814;8.650;2022-07-10T15:00:58;2.33;;;0.93;;
4422;SDS011;2224;49.814;8.650;2022-07-10T15:03:23;2.80;;;1.00;;
4422;SDS011;2224;49.814;8.650;2022-07-10T15:05:49;2.20;;;1.10;;
4422;SDS011;2224;49.814;8.650;2022-07-10T15:08:18;2.37;;;0.97;;
4422;SDS011;2224;49.814;8.650;2022-07-10T15:10:49;2.60;;;1.10;;
4422;SDS011;2224;49.814;8.650;2022-07-10T15:13:15;2.40;;;1.17;;
4422;SDS011;2224;49.814;8.650;2022-07-10T15:15:41;3.00;;;1.30;;
4422;SDS011;2224;49.814;8.650;2022-07-10T15:18:07;3.57;;;1.10;;
4422;SDS011;2224;49.814;8.650;2022-07-10T15:20:33;2.00;;;0.97;;
4422;SDS011;2224;49.814;8.650;2022-07-10T15:22:58;1.00;;;0.90;;
4422;SDS011;2224;49.814;8.650;2022-07-10T15:25:24;2.13;;;1.10;;
4422;SDS011;2224;49.814;8.650;2022-07-10T15:27:50;2.10;;;1.20;;
4422;SDS011;2224;49.814;8.650;2022-07-10T15:30:16;1.70;;;0.90;;
4422;SDS011;2224;49.814;8.650;2022-07-10T15:32:41;1.33;;;1.00;;
4422;SDS011;2224;49.814;8.650;2022-07-10T15:35:07;2.83;;;1.40;;
4422;SDS011;2224;49.814;8.650;2022-07-10T15:37:33;1.53;;;1.10;;
4422;SDS011;2224;49.814;8.650;2022-07-10T15:39:59;3.70;;;1.10;;